• Join FlightAware (Why Join?)
  • Login
  • US Flag 
07:12PM EDT


 

Airport Tracker/Info


-or-


 

Live Flight TrackerFlight Track Log ✈ N762NC ✈ 20-Oct-2013 ✈ KATL - KGSP

Flight Track Log - Related Links

Times and Time Zones

All times are in EDT time to prevent confusion due to time zone crossing. See the N762NC flight status page for this flight to view local times or setup timezone preferences in your user account.

Time Position Orientation Groundspeed Altitude Reporting Facility
EDT Latitude Longitude Course Direction KTS MPH feet Rate Location/Type
12:17PM 33.6158 -84.5078 57° Northeast 381 438 2,800  Level Atlanta Center
12:18PM 33.5719 -84.5700 230° Southwest 305 351 6,000 2,400 Climbing Atlanta Center
12:19PM 33.4967 -84.5619 175° South 283 326 7,700 2,100 Climbing Atlanta Center
12:20PM 33.4761 -84.4672 105° East 324 373 10,300 1,740 Climbing Atlanta Center
12:21PM 33.4786 -84.3500 89° East 345 397 11,200 1,620 Climbing Atlanta Center
12:22PM 33.5228 -84.2406 64° Northeast 351 404 13,600 2,100 Climbing Atlanta Center
12:23PM 33.9229 -83.9375 57° Northeast  Level Estimated
12:23PM 33.5875 -84.1361 53° Northeast 367 422 15,500  Level Atlanta Center
12:24PM 33.6564 -84.0264 53° Northeast 402 463 17,300 1,380 Climbing Atlanta Center
12:25PM 33.7169 -83.9239 55° Northeast 409 471 18,300 840 Climbing Atlanta Center
12:26PM 33.7897 -83.7939 56° Northeast 442 509 19,000 300 Climbing Atlanta Center
12:27PM 33.8708 -83.6686 52° Northeast 476 548 19,000  Level Atlanta Center
12:28PM 33.9539 -83.5378 53° Northeast 487 560 19,000  Level Atlanta Center
12:29PM 34.0325 -83.4047 54° Northeast 487 560 19,000  Level Atlanta Center
12:30PM 34.1050 -83.2661 58° Northeast 481 554 19,000 -300 Level Atlanta Center
12:31PM 34.1833 -83.1347 54° Northeast 486 559 18,500  Descending Atlanta Center
12:32PM 34.2700 -83.0056 51° Northeast 471 542 19,000 -3,000 Climbing Atlanta Center
12:33PM 34.3483 -82.8939 50° Northeast 444 511 12,500 -4,080 Descending Atlanta Center
12:34PM 34.4203 -82.7797 53° Northeast 429 494 10,900 -780 Descending Atlanta Center
12:35PM 34.5069 -82.6903 40° Northeast 416 479 11,000 -240 Climbing Atlanta Center
12:36PM 34.5664 -82.5958 53° Northeast 371 427 10,500 -1,260 Descending Atlanta Center
12:37PM 34.6258 -82.5192 47° Northeast 335 386 8,500 -2,160 Descending Atlanta Center
12:38PM 34.6750 -82.4400 53° Northeast 311 358 6,200 -2,160 Descending Atlanta Center
12:39PM 34.7222 -82.3708 50° Northeast 283 326 4,200 -1,380 Descending Atlanta Center
12:40PM 34.7653 -82.3169 46° Northeast 247 284 3,500 -840 Descending Atlanta Center
12:41PM 34.8106 -82.2831 32° Northeast 209 241 2,600 -600 Descending Atlanta Center
12:42PM 34.8497 -82.2392 43° Northeast 202 232 2,400 -240 Descending Atlanta Center
12:45PM 34.8833 -82.2167 39° Northeast  Level FlightAware Approximate